Terminal Aerodrome Forecast
Issued by NWS Wilmington, OH

Current Version | Previous Version | Graphics & Text | Print | Product List | Glossary On
Versions: 1 2 3 4 5 6 7 8 9 10 11 12 13 14 15 16 17 18 19 20 21 22 23 24 25 26 27 28 29 30 31
000
FTUS41 KILN 271800 AAB
TAFDAY
TAF AMD
KDAY 271858Z 2719/2818 29018G25KT P6SM VCSH FEW009 BKN013 OVC019
      TEMPO 2719/2722 3SM -RA
     FM272200 29014G24KT P6SM VCSH SCT015 BKN025
     FM280600 30016G26KT P6SM VCSH BKN035
     FM281400 31013G23KT P6SM SCT250=

USA.gov is the U.S. government's official web portal to all federal, state and local government web resources and services.